Time;durP1;ratioP1;P1;durP2;ratioP2;P2;SDS_P1;SDS_P2;PMS_P1;PMS_P2;Temp;Humidity;BMP_temperature;BMP_pressure;BME280_temperature;BME280_humidity;BME280_pressure;Samples;Min_cycle;Max_cycle;Signal;HPM_P1;HPM_P2
2021/11/26 00:01:34;;;;;;;2.47;1.40;;;;;11.00;100529.00;;;;5088266;28;20201;-79
2021/11/26 00:04:04;;;;;;;4.18;1.85;;;;;11.00;100525.00;;;;5091136;28;20202;-80
2021/11/26 00:06:31;;;;;;;2.10;1.77;;;;;11.00;100522.00;;;;5104021;28;20316;-80
2021/11/26 00:09:00;;;;;;;2.72;1.52;;;;;11.00;100516.00;;;;5098325;28;20246;-79
2021/11/26 00:11:29;;;;;;;2.72;1.88;;;;;11.00;100518.00;;;;5093166;28;20239;-80
2021/11/26 00:14:03;;;;;;;3.30;1.63;;;;;11.10;100516.00;;;;5096632;28;20202;-80
2021/11/26 00:16:35;;;;;;;5.30;2.20;;;;;11.10;100523.00;;;;5088594;28;20597;-80
2021/11/26 00:19:05;;;;;;;5.35;1.63;;;;;11.10;100522.00;;;;5087955;28;20555;-80
2021/11/26 00:21:33;;;;;;;3.03;1.50;;;;;11.10;100515.00;;;;5088382;28;20205;-80
2021/11/26 00:24:00;;;;;;;3.00;1.80;;;;;11.10;100506.00;;;;5089214;28;20207;-80
2021/11/26 00:26:29;;;;;;;3.13;1.40;;;;;11.10;100515.00;;;;5088265;28;20226;-79
2021/11/26 00:28:57;;;;;;;4.55;1.58;;;;;11.20;100536.00;;;;5096246;28;20203;-80
2021/11/26 00:31:24;;;;;;;3.75;1.67;;;;;11.20;100519.00;;;;5087034;28;20246;-79
2021/11/26 00:33:51;;;;;;;3.13;1.60;;;;;11.20;100513.00;;;;5104612;28;20224;-79
2021/11/26 00:36:19;;;;;;;4.20;2.22;;;;;11.20;100498.00;;;;5106592;28;20189;-80
2021/11/26 00:38:46;;;;;;;3.15;1.13;;;;;11.20;100487.00;;;;5105690;28;20584;-80
2021/11/26 00:41:13;;;;;;;1.67;0.80;;;;;11.20;100464.00;;;;5101159;28;20201;-80
2021/11/26 00:43:43;;;;;;;1.13;0.57;;;;;11.20;100459.00;;;;5110369;28;20717;-80
2021/11/26 00:46:11;;;;;;;3.80;1.00;;;;;11.30;100455.00;;;;5111511;28;21180;-80
2021/11/26 00:48:38;;;;;;;1.45;0.88;;;;;11.30;100451.00;;;;5096870;28;20193;-79
2021/11/26 00:51:05;;;;;;;3.13;0.98;;;;;11.30;100442.00;;;;5109320;28;20194;-80
2021/11/26 00:53:32;;;;;;;0.82;0.65;;;;;11.40;100445.00;;;;5096979;28;20202;-79
2021/11/26 00:55:59;;;;;;;2.22;0.90;;;;;11.40;100452.00;;;;5092098;28;20564;-80
2021/11/26 00:58:27;;;;;;;1.42;0.82;;;;;11.40;100443.00;;;;5091491;28;20194;-80
2021/11/26 01:00:55;;;;;;;0.70;0.52;;;;;11.40;100445.00;;;;5092120;28;20452;-80
2021/11/26 01:03:23;;;;;;;0.60;0.50;;;;;11.50;100438.00;;;;5094982;28;20193;-80
2021/11/26 01:05:51;;;;;;;1.00;0.50;;;;;11.50;100433.00;;;;5095488;28;20714;-80
2021/11/26 01:08:19;;;;;;;1.27;0.63;;;;;11.50;100427.00;;;;5090933;28;20194;-80
2021/11/26 01:10:47;;;;;;;1.58;0.40;;;;;11.50;100420.00;;;;5091708;28;20202;-80
2021/11/26 01:13:14;;;;;;;2.75;0.50;;;;;11.50;100419.00;;;;5100409;28;20202;-80
2021/11/26 01:15:43;;;;;;;1.42;0.57;;;;;11.50;100411.00;;;;5093362;28;20202;-80
2021/11/26 01:18:12;;;;;;;0.63;0.45;;;;;11.50;100404.00;;;;5091416;28;20327;-80
2021/11/26 01:20:40;;;;;;;0.93;0.38;;;;;11.50;100404.00;;;;5097836;28;20194;-80
2021/11/26 01:23:08;;;;;;;1.27;0.50;;;;;11.50;100397.00;;;;5090760;28;20191;-80
2021/11/26 01:25:36;;;;;;;2.50;0.40;;;;;11.50;100396.00;;;;5090684;28;20210;-80
2021/11/26 01:28:04;;;;;;;2.58;0.73;;;;;11.50;100392.00;;;;5104110;28;20698;-80
2021/11/26 01:30:34;;;;;;;1.35;0.63;;;;;11.50;100397.00;;;;5099356;28;20214;-80
2021/11/26 01:33:07;;;;;;;1.48;0.98;;;;;11.50;100399.00;;;;5090587;28;20705;-80
2021/11/26 01:35:36;;;;;;;1.55;0.43;;;;;11.50;100394.00;;;;5097269;28;20293;-80
2021/11/26 01:38:05;;;;;;;1.45;0.35;;;;;11.50;100394.00;;;;5090728;28;20563;-80
2021/11/26 01:40:33;;;;;;;1.25;0.60;;;;;11.50;100383.00;;;;5099764;28;20201;-80
2021/11/26 01:43:00;;;;;;;1.05;0.60;;;;;11.50;100386.00;;;;5095334;28;20201;-80
2021/11/26 01:45:28;;;;;;;2.25;0.98;;;;;11.60;100384.00;;;;5097414;28;21236;-80
2021/11/26 01:47:55;;;;;;;2.15;0.57;;;;;11.50;100372.00;;;;5098456;28;20198;-80
2021/11/26 01:50:23;;;;;;;1.50;0.50;;;;;11.50;100365.00;;;;5090248;28;20577;-81
2021/11/26 01:52:52;;;;;;;2.60;0.40;;;;;11.50;100351.00;;;;5089852;28;20617;-80
2021/11/26 01:55:20;;;;;;;1.55;0.50;;;;;11.50;100348.00;;;;5100453;28;20217;-80
2021/11/26 01:57:48;;;;;;;0.75;0.45;;;;;11.50;100338.00;;;;5096993;28;20252;-80
2021/11/26 02:00:26;;;;;;;1.50;0.52;;;;;11.50;100332.00;;;;5092594;28;20650;-80
2021/11/26 02:02:53;;;;;;;1.05;0.50;;;;;11.50;100319.00;;;;5090907;28;20202;-80
2021/11/26 02:05:20;;;;;;;1.30;0.55;;;;;11.50;100311.00;;;;5093115;28;20232;-80
2021/11/26 02:07:48;;;;;;;1.92;0.52;;;;;11.60;100313.00;;;;5096604;28;20194;-80
2021/11/26 02:10:17;;;;;;;1.00;0.57;;;;;11.50;100301.00;;;;5089967;28;20683;-80
2021/11/26 02:12:44;;;;;;;1.23;0.32;;;;;11.60;100310.00;;;;5094421;28;20190;-80
2021/11/26 02:15:17;;;;;;;1.13;0.60;;;;;11.50;100299.00;;;;5101526;28;20243;-80
2021/11/26 02:17:45;;;;;;;1.90;0.60;;;;;11.60;100295.00;;;;5090559;28;20198;-80
2021/11/26 02:20:18;;;;;;;1.13;0.32;;;;;11.60;100294.00;;;;5094875;28;20201;-80
2021/11/26 02:22:46;;;;;;;1.40;0.70;;;;;11.60;100286.00;;;;5091475;28;20202;-81
2021/11/26 02:25:13;;;;;;;0.75;0.43;;;;;11.60;100284.00;;;;5094564;28;20192;-80
2021/11/26 02:27:41;;;;;;;3.20;0.70;;;;;11.70;100277.00;;;;5094266;28;20204;-81
2021/11/26 02:30:15;;;;;;;1.13;0.47;;;;;11.60;100275.00;;;;5094351;28;20695;-80
2021/11/26 02:32:43;;;;;;;1.00;0.40;;;;;11.60;100265.00;;;;5090138;28;20574;-80
2021/11/26 02:35:11;;;;;;;2.28;0.60;;;;;11.60;100253.00;;;;5097353;28;20190;-80
2021/11/26 02:37:40;;;;;;;0.68;0.35;;;;;11.60;100248.00;;;;5094448;28;20205;-80
2021/11/26 02:40:09;;;;;;;0.65;0.50;;;;;11.60;100243.00;;;;5091432;28;20217;-81
2021/11/26 02:42:37;;;;;;;1.83;0.45;;;;;11.60;100237.00;;;;5099465;28;20569;-80
2021/11/26 02:45:06;;;;;;;3.38;0.50;;;;;11.60;100235.00;;;;5089692;28;20198;-80
2021/11/26 02:47:33;;;;;;;2.15;0.30;;;;;11.60;100229.00;;;;5089218;28;20186;-80
2021/11/26 02:50:03;;;;;;;0.80;0.60;;;;;11.60;100236.00;;;;5089098;28;20616;-80
2021/11/26 02:52:31;;;;;;;1.50;0.47;;;;;11.60;100229.00;;;;5089074;28;20218;-80
2021/11/26 02:54:59;;;;;;;0.32;0.20;;;;;11.60;100232.00;;;;5093173;28;20209;-80
2021/11/26 02:57:27;;;;;;;0.47;0.40;;;;;11.60;100217.00;;;;5104156;28;20201;-81
2021/11/26 02:59:54;;;;;;;0.50;0.25;;;;;11.60;100220.00;;;;5092469;28;20217;-80
2021/11/26 03:02:21;;;;;;;1.30;0.45;;;;;11.60;100222.00;;;;5092122;28;20202;-80
2021/11/26 03:04:49;;;;;;;1.27;0.35;;;;;11.60;100217.00;;;;5089402;28;20210;-80
2021/11/26 03:07:16;;;;;;;1.70;0.30;;;;;11.60;100215.00;;;;5093251;28;20217;-80
2021/11/26 03:09:43;;;;;;;0.75;0.30;;;;;11.60;100221.00;;;;5089639;28;20205;-80
2021/11/26 03:12:13;;;;;;;2.88;0.40;;;;;11.60;100211.00;;;;5089103;28;20201;-80
2021/11/26 03:14:40;;;;;;;0.88;0.57;;;;;11.60;100221.00;;;;5109488;28;20205;-80
2021/11/26 03:17:08;;;;;;;1.73;0.50;;;;;11.60;100215.00;;;;5094443;28;20197;-80
2021/11/26 03:19:35;;;;;;;0.98;0.60;;;;;11.60;100208.00;;;;5088692;28;20201;-80
2021/11/26 03:22:03;;;;;;;1.73;0.60;;;;;11.60;100198.00;;;;5089997;28;20202;-82
2021/11/26 03:24:30;;;;;;;1.90;0.55;;;;;11.50;100196.00;;;;5091851;28;20213;-82
2021/11/26 03:26:57;;;;;;;1.05;0.40;;;;;11.50;100192.00;;;;5088553;28;20307;-82
2021/11/26 03:29:26;;;;;;;0.88;0.28;;;;;11.50;100181.00;;;;5098053;28;20195;-81
2021/11/26 03:31:53;;;;;;;1.58;0.40;;;;;11.50;100175.00;;;;5088657;28;20216;-82
2021/11/26 03:34:20;;;;;;;0.43;0.25;;;;;11.50;100167.00;;;;5089812;28;20201;-82
2021/11/26 03:36:47;;;;;;;0.60;0.22;;;;;11.50;100160.00;;;;5101074;28;20198;-82
2021/11/26 03:39:15;;;;;;;0.50;0.30;;;;;11.50;100149.00;;;;5088379;28;20205;-82
2021/11/26 03:41:42;;;;;;;1.23;0.20;;;;;11.50;100147.00;;;;5089061;28;20206;-81
2021/11/26 03:44:09;;;;;;;2.15;0.38;;;;;11.50;100137.00;;;;5098856;28;20612;-82
2021/11/26 03:46:38;;;;;;;2.03;0.40;;;;;11.50;100135.00;;;;5102420;28;20213;-82
2021/11/26 03:49:06;;;;;;;0.20;0.15;;;;;11.60;100125.00;;;;5094101;28;20213;-82
2021/11/26 03:51:34;;;;;;;1.15;0.30;;;;;11.60;100118.00;;;;5089086;28;20229;-82
2021/11/26 03:54:01;;;;;;;1.08;0.20;;;;;11.60;100113.00;;;;5088702;28;20222;-82
2021/11/26 03:56:28;;;;;;;0.70;0.20;;;;;11.60;100107.00;;;;5093926;28;20194;-82
2021/11/26 03:58:55;;;;;;;1.50;0.30;;;;;11.60;100103.00;;;;5090011;28;20198;-82
2021/11/26 04:01:23;;;;;;;1.70;0.30;;;;;11.70;100095.00;;;;5093477;28;20194;-82
2021/11/26 04:03:51;;;;;;;0.17;0.10;;;;;11.70;100094.00;;;;5097509;28;20197;-81
2021/11/26 04:06:18;;;;;;;0.70;0.17;;;;;11.70;100093.00;;;;5100424;28;20221;-82
2021/11/26 04:08:46;;;;;;;1.45;0.45;;;;;11.70;100095.00;;;;5088292;28;20195;-81
2021/11/26 04:11:13;;;;;;;2.45;0.20;;;;;11.70;100084.00;;;;5097191;28;20198;-81
2021/11/26 04:13:40;;;;;;;1.88;0.47;;;;;11.70;100086.00;;;;5108437;28;20198;-81
2021/11/26 04:16:12;;;;;;;1.08;0.15;;;;;11.70;100075.00;;;;5109558;28;20201;-82
2021/11/26 04:18:40;;;;;;;1.23;0.30;;;;;11.70;100060.00;;;;5091974;28;20201;-82
2021/11/26 04:21:09;;;;;;;2.45;0.25;;;;;11.70;100063.00;;;;5105498;28;20205;-81
2021/11/26 04:23:36;;;;;;;1.15;0.50;;;;;11.60;100052.00;;;;5100675;28;20671;-81
2021/11/26 04:26:04;;;;;;;0.68;0.20;;;;;11.60;100055.00;;;;5108386;28;20225;-81
2021/11/26 04:28:31;;;;;;;1.98;0.28;;;;;11.60;100043.00;;;;5093470;28;20198;-82
2021/11/26 04:31:01;;;;;;;1.65;0.35;;;;;11.60;100039.00;;;;5095195;28;20206;-81
2021/11/26 04:33:29;;;;;;;3.13;0.38;;;;;11.60;100031.00;;;;5091583;28;20652;-81
2021/11/26 04:35:56;;;;;;;0.93;0.17;;;;;11.60;100027.00;;;;5091849;28;20251;-81
2021/11/26 04:38:25;;;;;;;0.45;0.35;;;;;11.60;100033.00;;;;5103383;28;20198;-82
2021/11/26 04:40:52;;;;;;;0.80;0.30;;;;;11.60;100022.00;;;;5097003;28;20726;-81
2021/11/26 04:43:20;;;;;;;0.50;0.15;;;;;11.60;100016.00;;;;5098720;28;20201;-81
2021/11/26 04:45:49;;;;;;;1.73;0.10;;;;;11.60;100003.00;;;;5090083;28;20687;-82
2021/11/26 04:48:17;;;;;;;0.25;0.20;;;;;11.60;99998.00;;;;5091246;28;20198;-81
2021/11/26 04:50:44;;;;;;;1.40;0.28;;;;;11.60;100009.00;;;;5096604;28;20208;-81
2021/11/26 04:53:11;;;;;;;0.75;0.30;;;;;11.50;99998.00;;;;5090636;28;20226;-81
2021/11/26 04:55:41;;;;;;;1.13;0.30;;;;;11.50;99995.00;;;;5090296;28;20199;-80
2021/11/26 04:58:08;;;;;;;0.47;0.30;;;;;11.50;99992.00;;;;5099305;28;20548;-81
2021/11/26 05:00:36;;;;;;;2.25;0.10;;;;;11.50;99986.00;;;;5105518;28;20194;-81
2021/11/26 05:03:03;;;;;;;1.27;0.30;;;;;11.50;99979.00;;;;5091096;28;20210;-81
2021/11/26 05:05:30;;;;;;;0.30;0.10;;;;;11.50;99969.00;;;;5102649;28;20198;-80
2021/11/26 05:07:58;;;;;;;1.10;0.22;;;;;11.50;99963.00;;;;5092364;28;20221;-81
2021/11/26 05:10:26;;;;;;;0.93;0.22;;;;;11.50;99960.00;;;;5091812;28;20458;-81
2021/11/26 05:12:56;;;;;;;1.35;0.43;;;;;11.50;99949.00;;;;5102125;28;20202;-82
2021/11/26 05:15:27;;;;;;;1.58;0.30;;;;;11.50;99943.00;;;;5096225;28;20212;-81
2021/11/26 05:17:56;;;;;;;0.43;0.20;;;;;11.40;99937.00;;;;5110225;28;20197;-82
2021/11/26 05:20:24;;;;;;;0.63;0.25;;;;;11.40;99938.00;;;;5109145;28;20683;-82
2021/11/26 05:22:52;;;;;;;2.83;0.32;;;;;11.40;99935.00;;;;5094428;28;20209;-82
2021/11/26 05:25:20;;;;;;;2.05;0.40;;;;;11.40;99921.00;;;;5097391;28;20198;-83
2021/11/26 05:27:48;;;;;;;2.63;0.50;;;;;11.40;99916.00;;;;5094805;28;20225;-81
2021/11/26 05:30:17;;;;;;;0.95;0.28;;;;;11.30;99919.00;;;;5094760;28;20205;-82
2021/11/26 05:32:44;;;;;;;0.40;0.30;;;;;11.30;99912.00;;;;5089425;28;20229;-82
2021/11/26 05:35:13;;;;;;;0.73;0.40;;;;;11.30;99909.00;;;;5093244;28;20198;-82
2021/11/26 05:37:41;;;;;;;0.57;0.35;;;;;11.30;99899.00;;;;5091002;28;20206;-82
2021/11/26 05:40:10;;;;;;;1.55;0.40;;;;;11.30;99895.00;;;;5091158;28;20224;-82
2021/11/26 05:42:38;;;;;;;2.05;0.35;;;;;11.30;99888.00;;;;5092390;28;20198;-81
2021/11/26 05:45:07;;;;;;;0.40;0.30;;;;;11.30;99882.00;;;;5098477;28;20198;-81
2021/11/26 05:47:36;;;;;;;0.28;0.28;;;;;11.30;99883.00;;;;5091071;28;20218;-82
2021/11/26 05:50:06;;;;;;;0.80;0.50;;;;;11.30;99882.00;;;;5090974;28;20197;-81
2021/11/26 05:52:33;;;;;;;0.55;0.32;;;;;11.30;99871.00;;;;5095527;28;21090;-81
2021/11/26 05:55:00;;;;;;;1.08;0.50;;;;;11.30;99870.00;;;;5091766;28;20845;-81
2021/11/26 05:57:28;;;;;;;2.58;0.85;;;;;11.30;99863.00;;;;5102063;28;20193;-81
2021/11/26 05:59:55;;;;;;;2.75;0.80;;;;;11.30;99861.00;;;;5095297;28;20383;-82
2021/11/26 06:02:23;;;;;;;1.75;0.63;;;;;11.30;99856.00;;;;5097603;28;20201;-81
2021/11/26 06:04:51;;;;;;;1.63;0.80;;;;;11.30;99853.00;;;;5101141;28;20602;-81
2021/11/26 06:07:19;;;;;;;2.10;0.75;;;;;11.30;99841.00;;;;5095426;28;20248;-81
2021/11/26 06:09:46;;;;;;;2.37;0.87;;;;;11.30;99839.00;;;;5106082;28;20447;-81
2021/11/26 06:12:13;;;;;;;1.77;0.90;;;;;11.30;99838.00;;;;5100832;28;20233;-81
2021/11/26 06:14:40;;;;;;;1.15;0.95;;;;;11.30;99825.00;;;;5094687;28;20198;-81
2021/11/26 06:17:08;;;;;;;2.65;0.82;;;;;11.30;99819.00;;;;5093653;28;20190;-81
2021/11/26 06:19:35;;;;;;;2.60;1.08;;;;;11.30;99809.00;;;;5092596;28;20198;-80
2021/11/26 06:22:04;;;;;;;1.60;0.73;;;;;11.30;99800.00;;;;5089573;28;20194;-81
2021/11/26 06:24:32;;;;;;;2.35;0.85;;;;;11.30;99790.00;;;;5090653;28;20901;-80
2021/11/26 06:26:59;;;;;;;1.85;0.90;;;;;11.30;99792.00;;;;5090061;28;20218;-81
2021/11/26 06:29:26;;;;;;;1.75;0.55;;;;;11.30;99788.00;;;;5093602;28;20210;-82
2021/11/26 06:31:53;;;;;;;3.13;1.05;;;;;11.30;99773.00;;;;5097834;28;20213;-82
2021/11/26 06:34:21;;;;;;;1.88;0.90;;;;;11.30;99777.00;;;;5095951;28;20225;-82
2021/11/26 06:36:48;;;;;;;1.40;0.80;;;;;11.30;99765.00;;;;5100017;28;20201;-81
2021/11/26 06:39:17;;;;;;;2.78;0.93;;;;;11.30;99770.00;;;;5098079;28;20197;-82
2021/11/26 06:41:44;;;;;;;1.73;0.80;;;;;11.30;99764.00;;;;5096143;28;20225;-81
2021/11/26 06:44:11;;;;;;;1.50;0.80;;;;;11.30;99760.00;;;;5097883;28;20196;-82
2021/11/26 06:46:38;;;;;;;1.92;0.65;;;;;11.30;99758.00;;;;5108229;28;20204;-82
2021/11/26 06:49:06;;;;;;;2.42;0.73;;;;;11.30;99748.00;;;;5104780;28;20193;-81
2021/11/26 06:51:33;;;;;;;2.95;0.98;;;;;11.30;99755.00;;;;5102090;28;20236;-81
2021/11/26 06:54:00;;;;;;;5.25;1.13;;;;;11.20;99749.00;;;;5093407;28;20206;-81
2021/11/26 06:56:29;;;;;;;2.10;0.50;;;;;11.20;99734.00;;;;5090508;28;20217;-82
2021/11/26 06:58:58;;;;;;;2.08;0.70;;;;;11.20;99738.00;;;;5088572;28;20503;-81
2021/11/26 07:01:26;;;;;;;3.40;0.98;;;;;11.20;99743.00;;;;5089061;28;20191;-81
2021/11/26 07:03:54;;;;;;;3.22;0.73;;;;;11.20;99738.00;;;;5091603;28;20199;-82
2021/11/26 07:06:21;;;;;;;1.50;0.77;;;;;11.20;99733.00;;;;5091446;28;20204;-82
2021/11/26 07:08:48;;;;;;;2.22;0.75;;;;;11.20;99730.00;;;;5090049;28;20218;-80
2021/11/26 07:11:16;;;;;;;2.97;1.05;;;;;11.20;99724.00;;;;5104808;28;20206;-80
2021/11/26 07:13:45;;;;;;;2.00;0.82;;;;;11.10;99724.00;;;;5108857;28;20293;-81
2021/11/26 07:16:12;;;;;;;1.88;0.80;;;;;11.20;99726.00;;;;5108329;28;20200;-81
2021/11/26 07:18:39;;;;;;;3.88;0.68;;;;;11.10;99709.00;;;;5108467;28;20235;-81
2021/11/26 07:21:06;;;;;;;1.48;0.50;;;;;11.20;99719.00;;;;5107039;28;20193;-81
2021/11/26 07:23:34;;;;;;;1.63;0.68;;;;;11.10;99711.00;;;;5108617;28;20547;-81
2021/11/26 07:26:01;;;;;;;2.47;0.68;;;;;11.20;99701.00;;;;5108458;28;20209;-81
2021/11/26 07:28:29;;;;;;;4.35;1.05;;;;;11.10;99702.00;;;;5092287;28;20305;-81
2021/11/26 07:30:57;;;;;;;2.88;0.60;;;;;11.10;99696.00;;;;5097617;28;20221;-81
2021/11/26 07:33:25;;;;;;;2.47;0.80;;;;;11.10;99692.00;;;;5088361;28;20654;-81
2021/11/26 07:35:52;;;;;;;2.78;0.77;;;;;11.20;99696.00;;;;5088104;28;20195;-80
2021/11/26 07:38:19;;;;;;;2.70;0.77;;;;;11.20;99685.00;;;;5088797;28;20202;-81
2021/11/26 07:40:49;;;;;;;1.92;0.45;;;;;11.20;99683.00;;;;5094853;28;20197;-81
2021/11/26 07:43:16;;;;;;;0.80;0.40;;;;;11.20;99681.00;;;;5096785;28;20247;-81
2021/11/26 07:45:44;;;;;;;2.75;1.10;;;;;11.20;99672.00;;;;5105786;28;20205;-79
2021/11/26 07:48:12;;;;;;;4.72;1.10;;;;;11.20;99666.00;;;;5104368;28;20221;-81
2021/11/26 07:50:40;;;;;;;1.70;0.70;;;;;11.20;99654.00;;;;5111057;28;20190;-80
2021/11/26 07:53:07;;;;;;;4.03;0.85;;;;;11.20;99655.00;;;;5102156;28;20226;-83
2021/11/26 07:55:34;;;;;;;3.85;1.27;;;;;11.20;99641.00;;;;5095268;28;20196;-80
2021/11/26 07:58:02;;;;;;;5.30;1.02;;;;;11.20;99633.00;;;;5104283;28;20571;-80
2021/11/26 08:00:30;;;;;;;2.55;1.10;;;;;11.20;99633.00;;;;5093908;28;20206;-80
2021/11/26 08:03:01;;;;;;;3.15;1.00;;;;;11.20;99626.00;;;;5108740;28;20202;-82
2021/11/26 08:05:30;;;;;;;2.90;1.05;;;;;11.20;99625.00;;;;5111978;28;20679;-81
2021/11/26 08:07:57;;;;;;;1.55;0.50;;;;;11.20;99622.00;;;;5108931;28;20940;-83
2021/11/26 08:10:24;;;;;;;2.63;0.80;;;;;11.20;99628.00;;;;5095105;28;20194;-81
2021/11/26 08:12:51;;;;;;;4.30;1.58;;;;;11.10;99614.00;;;;5093272;28;20195;-82
2021/11/26 08:15:20;;;;;;;3.00;1.13;;;;;11.10;99615.00;;;;5095260;28;20201;-82
2021/11/26 08:17:48;;;;;;;2.78;0.88;;;;;11.20;99617.00;;;;5104123;28;20619;-81
2021/11/26 08:20:17;;;;;;;3.20;0.95;;;;;11.10;99598.00;;;;5092728;28;20295;-81
2021/11/26 08:22:47;;;;;;;3.22;0.93;;;;;11.10;99596.00;;;;5092752;28;20198;-82
2021/11/26 08:25:16;;;;;;;4.25;1.08;;;;;11.10;99599.00;;;;5108213;28;20194;-82
2021/11/26 08:27:43;;;;;;;2.28;1.33;;;;;11.20;99597.00;;;;5112720;28;20620;-82
2021/11/26 08:30:11;;;;;;;6.53;2.17;;;;;11.20;99596.00;;;;5097812;28;20210;-81
2021/11/26 08:32:39;;;;;;;3.45;1.10;;;;;11.20;99593.00;;;;5106599;28;20272;-80
2021/11/26 08:35:07;;;;;;;2.58;1.42;;;;;11.20;99582.00;;;;5094652;28;20620;-81
2021/11/26 08:37:34;;;;;;;4.65;1.70;;;;;11.20;99578.00;;;;5093256;28;20202;-79
2021/11/26 08:40:04;;;;;;;3.38;1.67;;;;;11.20;99571.00;;;;5103335;28;20814;-80
2021/11/26 08:42:31;;;;;;;4.50;1.38;;;;;11.20;99561.00;;;;5111710;28;20279;-80
2021/11/26 08:44:59;;;;;;;7.32;1.88;;;;;11.20;99555.00;;;;5111439;28;20209;-81
2021/11/26 08:47:28;;;;;;;2.47;1.50;;;;;11.10;99550.00;;;;5092465;28;20218;-82
2021/11/26 08:49:56;;;;;;;4.57;1.55;;;;;11.20;99542.00;;;;5099952;28;20202;-83
2021/11/26 08:52:24;;;;;;;4.45;1.73;;;;;11.20;99535.00;;;;5110114;28;20627;-82
2021/11/26 08:54:51;;;;;;;4.63;1.75;;;;;11.20;99528.00;;;;5111585;28;20217;-81
2021/11/26 08:57:26;;;;;;;3.63;1.70;;;;;11.20;99519.00;;;;5104038;28;20198;-83
2021/11/26 08:59:54;;;;;;;4.97;2.00;;;;;11.20;99512.00;;;;5112456;28;20217;-83
2021/11/26 09:02:21;;;;;;;5.32;2.30;;;;;11.20;99505.00;;;;5112013;28;20197;-81
2021/11/26 09:04:48;;;;;;;7.32;2.45;;;;;11.20;99491.00;;;;5091716;28;20226;-82
2021/11/26 09:07:16;;;;;;;7.35;2.10;;;;;11.30;99498.00;;;;5091495;28;20206;-81
2021/11/26 09:09:43;;;;;;;6.20;2.00;;;;;11.30;99494.00;;;;5093565;28;20210;-82
2021/11/26 09:12:10;;;;;;;6.55;2.15;;;;;11.30;99477.00;;;;5107063;28;20201;-82
2021/11/26 09:14:39;;;;;;;7.40;2.67;;;;;11.30;99470.00;;;;5109302;28;20193;-82
2021/11/26 09:17:07;;;;;;;7.82;2.47;;;;;11.40;99469.00;;;;5092674;28;20201;-81
2021/11/26 09:19:36;;;;;;;8.95;2.22;;;;;11.40;99459.00;;;;5096940;28;20209;-83
2021/11/26 09:22:04;;;;;;;6.18;2.15;;;;;11.50;99459.00;;;;5096857;28;20198;-82
2021/11/26 09:24:31;;;;;;;5.72;2.97;;;;;11.50;99456.00;;;;5095563;28;20580;-82
2021/11/26 09:26:58;;;;;;;13.20;2.75;;;;;11.50;99455.00;;;;5101402;28;20266;-82
2021/11/26 09:29:25;;;;;;;5.07;2.33;;;;;11.60;99441.00;;;;5096693;28;20687;-81
2021/11/26 09:32:01;;;;;;;10.52;2.30;;;;;11.60;99441.00;;;;5101034;28;20217;-82
2021/11/26 09:34:29;;;;;;;7.00;1.60;;;;;11.70;99442.00;;;;5093764;28;20247;-82
2021/11/26 09:36:59;;;;;;;4.80;2.17;;;;;11.80;99428.00;;;;5102470;28;20208;-83
2021/11/26 09:39:26;;;;;;;5.68;2.78;;;;;11.80;99427.00;;;;5094852;28;20631;-81
2021/11/26 09:41:55;;;;;;;7.13;2.28;;;;;11.90;99429.00;;;;5110206;28;20228;-82
2021/11/26 09:44:22;;;;;;;6.90;1.80;;;;;11.90;99426.00;;;;5103761;28;20216;-80
2021/11/26 09:46:54;;;;;;;4.38;1.88;;;;;11.90;99417.00;;;;5101120;28;20230;-80
2021/11/26 09:49:22;;;;;;;4.38;1.80;;;;;12.00;99412.00;;;;5110761;28;20663;-80
2021/11/26 09:51:49;;;;;;;5.32;2.10;;;;;11.90;99409.00;;;;5098744;28;20234;-82
2021/11/26 09:54:17;;;;;;;6.28;2.15;;;;;12.00;99406.00;;;;5101902;28;20201;-81
2021/11/26 09:56:45;;;;;;;3.40;1.60;;;;;11.90;99395.00;;;;5098264;28;20213;-82
2021/11/26 09:59:12;;;;;;;5.47;1.70;;;;;11.90;99395.00;;;;5121185;27;21156;-82
2021/11/26 10:01:40;;;;;;;3.60;2.17;;;;;12.00;99387.00;;;;5106340;28;20202;-81
2021/11/26 10:04:18;;;;;;;4.20;2.30;;;;;11.90;99385.00;;;;5109365;28;20208;-81
2021/11/26 10:06:45;;;;;;;6.32;1.77;;;;;12.00;99372.00;;;;5092404;28;20198;-81
2021/11/26 10:09:14;;;;;;;3.50;1.85;;;;;11.90;99365.00;;;;5099811;28;20786;-82
2021/11/26 10:11:46;;;;;;;4.13;1.75;;;;;11.90;99358.00;;;;5090561;28;20206;-84
2021/11/26 10:14:19;;;;;;;3.75;1.83;;;;;11.90;99340.00;;;;5096470;28;20577;-82
2021/11/26 10:16:49;;;;;;;4.45;1.42;;;;;11.90;99333.00;;;;5104977;28;20571;-82
2021/11/26 10:19:31;;;;;;;8.82;1.80;;;;;11.80;99326.00;;;;5097201;28;20761;-80
2021/11/26 10:21:58;;;;;;;3.08;1.35;;;;;11.90;99318.00;;;;5104047;28;20554;-81
2021/11/26 10:24:26;;;;;;;4.15;1.67;;;;;12.00;99315.00;;;;5098600;28;20194;-80
2021/11/26 10:26:55;;;;;;;5.20;1.48;;;;;11.90;99307.00;;;;5094351;28;20205;-81
2021/11/26 10:29:32;;;;;;;3.30;1.30;;;;;11.90;99292.00;;;;5086125;28;20229;-81
2021/11/26 10:32:08;;;;;;;2.35;1.50;;;;;11.90;99288.00;;;;5089515;28;20229;-81
2021/11/26 10:34:36;;;;;;;5.13;1.95;;;;;12.00;99284.00;;;;5088022;28;20201;-81
2021/11/26 10:37:04;;;;;;;3.15;1.67;;;;;12.00;99273.00;;;;5101926;28;20206;-80
2021/11/26 10:39:34;;;;;;;3.60;1.13;;;;;12.00;99258.00;;;;5096307;28;20202;-80
2021/11/26 10:42:02;;;;;;;3.50;1.48;;;;;12.10;99244.00;;;;5091975;28;20288;-81
2021/11/26 10:44:43;;;;;;;7.60;1.70;;;;;12.10;99245.00;;;;5090627;28;20194;-82
2021/11/26 10:47:17;;;;;;;4.93;1.73;;;;;12.10;99226.00;;;;5098024;28;20561;-81
2021/11/26 10:58:23;;;;;;;5.38;1.45;;;;;12.20;99190.00;;;;5090859;28;20616;-82
2021/11/26 11:01:02;;;;;;;4.20;1.38;;;;;12.20;99192.00;;;;5088133;28;20206;-82
2021/11/26 11:03:29;;;;;;;4.00;1.42;;;;;12.30;99193.00;;;;5090935;28;20190;-79
2021/11/26 11:05:57;;;;;;;4.53;1.65;;;;;12.30;99177.00;;;;5093082;28;20753;-82
2021/11/26 11:08:25;;;;;;;3.20;1.60;;;;;12.30;99162.00;;;;5098942;28;20225;-81
2021/11/26 11:10:53;;;;;;;1.98;1.30;;;;;12.40;99164.00;;;;5094900;28;20193;-82
2021/11/26 11:13:27;;;;;;;4.55;1.40;;;;;12.40;99151.00;;;;5096860;28;20206;-82
2021/11/26 11:16:03;;;;;;;3.67;1.92;;;;;12.40;99147.00;;;;5092279;28;20851;-83
2021/11/26 11:18:31;;;;;;;5.05;1.65;;;;;12.50;99137.00;;;;5094114;28;20215;-80
2021/11/26 11:20:59;;;;;;;2.63;1.25;;;;;12.50;99130.00;;;;5104708;28;20206;-79
2021/11/26 11:23:26;;;;;;;4.07;1.27;;;;;12.60;99120.00;;;;5097234;28;20201;-80
2021/11/26 11:25:56;;;;;;;3.63;1.25;;;;;12.60;99115.00;;;;5088567;28;20613;-82
2021/11/26 11:28:26;;;;;;;2.08;1.17;;;;;12.70;99107.00;;;;5104349;28;20221;-79
2021/11/26 11:30:53;;;;;;;6.88;2.20;;;;;12.70;99091.00;;;;5101890;28;20637;-81
2021/11/26 11:33:22;;;;;;;2.63;1.10;;;;;12.70;99082.00;;;;5106138;28;20238;-78
2021/11/26 11:35:50;;;;;;;3.90;1.38;;;;;12.70;99072.00;;;;5092523;28;20204;-80
2021/11/26 11:38:19;;;;;;;4.60;0.93;;;;;12.60;99073.00;;;;5106642;28;20667;-79
2021/11/26 11:40:49;;;;;;;4.95;1.85;;;;;12.60;99067.00;;;;5088722;28;20203;-80
2021/11/26 11:43:19;;;;;;;6.85;1.75;;;;;12.60;99056.00;;;;5106874;28;20198;-80
2021/11/26 11:45:57;;;;;;;3.83;1.20;;;;;12.60;99066.00;;;;5102184;28;20259;-79
2021/11/26 11:48:26;;;;;;;2.70;1.17;;;;;12.60;99048.00;;;;5095829;28;20218;-82
2021/11/26 11:50:54;;;;;;;5.47;1.90;;;;;12.60;99048.00;;;;5101748;28;20216;-82
2021/11/26 11:53:31;;;;;;;2.75;0.77;;;;;12.50;99038.00;;;;5108684;28;20613;-82
2021/11/26 11:56:07;;;;;;;5.00;1.00;;;;;12.50;99026.00;;;;5095416;28;20281;-81
2021/11/26 11:58:48;;;;;;;3.75;1.15;;;;;12.40;99015.00;;;;5096611;28;20198;-83
2021/11/26 12:01:23;;;;;;;2.20;1.00;;;;;12.40;99015.00;;;;5092019;28;20201;-81
2021/11/26 12:03:52;;;;;;;7.93;1.52;;;;;12.40;99002.00;;;;5099390;28;20242;-81
2021/11/26 12:06:19;;;;;;;4.68;1.52;;;;;12.40;98985.00;;;;5098250;28;20193;-81
2021/11/26 12:08:52;;;;;;;3.63;1.10;;;;;12.40;98978.00;;;;5093559;28;20236;-82
2021/11/26 12:11:27;;;;;;;3.72;1.20;;;;;12.30;98969.00;;;;5096906;28;20286;-79
2021/11/26 12:14:04;;;;;;;2.65;1.20;;;;;12.20;98968.00;;;;5093707;28;20698;-82
2021/11/26 12:16:43;;;;;;;5.38;1.25;;;;;12.30;98953.00;;;;5091936;28;20197;-81
2021/11/26 12:19:21;;;;;;;1.80;1.10;;;;;12.20;98956.00;;;;5089009;28;20201;-81
2021/11/26 12:21:51;;;;;;;3.42;1.55;;;;;12.20;98940.00;;;;5092162;28;20198;-79
2021/11/26 12:24:25;;;;;;;3.17;1.45;;;;;12.20;98928.00;;;;5087204;28;20194;-79
2021/11/26 12:26:55;;;;;;;3.38;1.55;;;;;12.10;98926.00;;;;5089758;28;20192;-83
2021/11/26 12:29:34;;;;;;;3.40;1.95;;;;;12.10;98909.00;;;;5097727;28;20220;-81